Time;durP1;ratioP1;P1;durP2;ratioP2;P2;SDS_P1;SDS_P2;PMS_P1;PMS_P2;Temp;Humidity;BMP_temperature;BMP_pressure;BME280_temperature;BME280_humidity;BME280_pressure;Samples;Min_cycle;Max_cycle;Signal;HPM_P1;HPM_P2
2023/01/25 00:01:22;;;;;;;;;;;;;;;-0.45;100.00;101977.25;5547439;32;34997;-70
2023/01/25 00:04:30;;;;;;;;;;;;;;;-0.42;100.00;101982.34;5535144;32;34212;-70
2023/01/25 00:07:38;;;;;;;;;;;;;;;-0.49;100.00;101992.19;5548144;32;34756;-70
2023/01/25 00:10:50;;;;;;;;;;;;;;;-0.48;100.00;101995.59;5546964;32;34796;-70
2023/01/25 00:14:03;;;;;;;;;;;;;;;-0.48;100.00;102001.66;5546392;32;34565;-70
2023/01/25 00:17:14;;;;;;;;;;;;;;;-0.14;100.00;102005.59;5546987;32;33551;-70
2023/01/25 00:20:22;;;;;;;;;;;;;;;-0.12;100.00;102012.47;5547064;32;35118;-70
2023/01/25 00:23:33;;;;;;;;;;;;;;;-0.15;100.00;102011.75;5547191;32;34354;-70
2023/01/25 00:26:42;;;;;;;;;;;;;;;-0.26;100.00;102009.53;5548070;32;34926;-71
2023/01/25 00:29:55;;;;;;;;;;;;;;;-0.35;100.00;102009.91;5547154;32;35092;-70
2023/01/25 00:33:27;;;;;;;;;;;;;;;-0.35;100.00;102006.44;5547433;32;35207;-70
2023/01/25 00:36:38;;;;;;;;;;;;;;;-0.33;100.00;101997.62;5547901;32;34334;-70
2023/01/25 00:39:46;;;;;;;;;;;;;;;-0.41;100.00;101999.69;5553464;32;35044;-71
2023/01/25 00:42:55;;;;;;;;;;;;;;;-0.41;100.00;102004.06;5554098;32;34553;-69
2023/01/25 00:46:04;;;;;;;;;;;;;;;-0.45;100.00;101993.75;5567278;32;33317;-70
2023/01/25 00:49:32;;;;;;;;;;;;;;;-0.47;100.00;101997.31;5567210;32;35062;-69
2023/01/25 00:52:40;;;;;;;;;;;;;;;-0.53;100.00;102000.13;5567282;32;34558;-71
2023/01/25 00:55:53;;;;;;;;;;;;;;;-0.57;100.00;102002.00;5567164;32;34480;-69
2023/01/25 00:59:01;;;;;;;;;;;;;;;-0.61;100.00;102008.25;5540602;32;33783;-70
2023/01/25 01:02:10;;;;;;;;;;;;;;;-0.67;100.00;102010.22;5566960;32;34471;-70
2023/01/25 01:05:16;;;;;;;;;;;;;;;-0.73;100.00;102013.09;5552993;32;33368;-71
2023/01/25 01:08:23;;;;;;;;;;;;;;;-0.70;100.00;102023.37;5553753;32;35062;-70
2023/01/25 01:11:35;;;;;;;;;;;;;;;-0.73;100.00;102018.28;5566808;32;34666;-70
2023/01/25 01:14:45;;;;;;;;;;;;;;;-0.73;100.00;102013.94;5566787;32;34437;-71
2023/01/25 01:17:52;;;;;;;;;;;;;;;-0.80;100.00;102016.81;5540409;32;34670;-70
2023/01/25 01:21:07;;;;;;;;;;;;;;;-0.77;100.00;102022.75;5552521;32;33194;-70
2023/01/25 01:24:14;;;;;;;;;;;;;;;-0.62;100.00;102019.59;5553736;32;34997;-69
2023/01/25 01:27:24;;;;;;;;;;;;;;;-0.64;100.00;102024.03;5555098;32;33323;-70
2023/01/25 01:30:30;;;;;;;;;;;;;;;-0.68;100.00;102024.19;5542582;32;33047;-70
2023/01/25 01:33:40;;;;;;;;;;;;;;;-0.73;100.00;102026.97;5556136;32;34736;-70
2023/01/25 01:36:50;;;;;;;;;;;;;;;-0.74;100.00;102027.00;5543064;32;34691;-70
2023/01/25 01:40:02;;;;;;;;;;;;;;;-0.79;100.00;102023.72;5569092;32;35051;-70
2023/01/25 01:43:24;;;;;;;;;;;;;;;-0.83;100.00;102020.37;5556233;32;35160;-70
2023/01/25 01:46:38;;;;;;;;;;;;;;;-0.91;100.00;102025.00;5556101;32;34475;-70
2023/01/25 01:49:50;;;;;;;;;;;;;;;-0.96;100.00;102019.94;5555793;32;35421;-70
2023/01/25 01:53:00;;;;;;;;;;;;;;;-0.97;100.00;102015.63;5569215;32;34231;-71
2023/01/25 01:56:11;;;;;;;;;;;;;;;-1.05;100.00;102014.22;5568939;32;34587;-70
2023/01/25 01:59:23;;;;;;;;;;;;;;;-1.12;100.00;102008.41;5555931;32;34309;-70
2023/01/25 02:02:35;;;;;;;;;;;;;;;-1.11;100.00;102007.47;5542495;32;34956;-70
2023/01/25 02:06:05;;;;;;;;;;;;;;;-1.17;100.00;102007.69;5555381;32;34076;-70
2023/01/25 02:09:12;;;;;;;;;;;;;;;-1.22;100.00;102001.81;5555084;32;34234;-70
2023/01/25 02:12:20;;;;;;;;;;;;;;;-1.10;100.00;102003.09;5542266;32;34843;-70
2023/01/25 02:15:35;;;;;;;;;;;;;;;-1.14;100.00;101998.91;5555285;32;34088;-70
2023/01/25 02:18:43;;;;;;;;;;;;;;;-1.22;100.00;102008.75;5554908;32;34163;-70
2023/01/25 02:21:55;;;;;;;;;;;;;;;-1.22;100.00;102001.81;5555551;32;34484;-71
2023/01/25 02:25:12;;;;;;;;;;;;;;;-1.26;100.00;102009.78;5555479;32;34444;-71
2023/01/25 02:28:24;;;;;;;;;;;;;;;-1.13;100.00;102005.84;5555198;32;34541;-70
2023/01/25 02:31:34;;;;;;;;;;;;;;;-1.18;100.00;102003.37;5555517;32;34610;-70
2023/01/25 02:34:43;;;;;;;;;;;;;;;-1.16;100.00;101991.16;5568522;32;34602;-70
2023/01/25 02:37:48;;;;;;;;;;;;;;;-1.22;100.00;101991.38;5554525;32;34509;-70
2023/01/25 02:41:06;;;;;;;;;;;;;;;-1.19;100.00;101986.06;5555174;32;34583;-70
2023/01/25 02:44:18;;;;;;;;;;;;;;;-1.09;100.00;101978.78;5555308;32;35118;-70
2023/01/25 02:47:27;;;;;;;;;;;;;;;-1.16;100.00;101978.13;5542135;32;34698;-70
2023/01/25 02:50:41;;;;;;;;;;;;;;;-1.14;100.00;101970.28;5568580;32;34615;-70
2023/01/25 02:53:51;;;;;;;;;;;;;;;-1.32;100.00;101966.56;5568538;32;34509;-70
2023/01/25 02:56:57;;;;;;;;;;;;;;;-1.32;100.00;101970.03;5568435;32;34607;-71
2023/01/25 03:00:08;;;;;;;;;;;;;;;-1.38;100.00;101974.59;5568409;32;34512;-70
2023/01/25 03:03:19;;;;;;;;;;;;;;;-1.47;100.00;101978.38;5555548;32;35030;-71
2023/01/25 03:06:29;;;;;;;;;;;;;;;-1.41;100.00;101977.31;5541702;32;34558;-70
2023/01/25 03:09:38;;;;;;;;;;;;;;;-0.88;100.00;101975.41;5568297;32;34549;-71
2023/01/25 03:12:48;;;;;;;;;;;;;;;-1.05;100.00;101978.59;5568184;32;34369;-71
2023/01/25 03:16:01;;;;;;;;;;;;;;;-0.97;100.00;101973.16;5568570;32;34488;-71
2023/01/25 03:19:10;;;;;;;;;;;;;;;-1.04;100.00;101969.03;5553402;32;33261;-71
2023/01/25 03:22:18;;;;;;;;;;;;;;;-1.31;100.00;101968.28;5554074;32;34599;-70
2023/01/25 03:25:26;;;;;;;;;;;;;;;-1.33;100.00;101965.72;5541380;32;35046;-70
2023/01/25 03:28:34;;;;;;;;;;;;;;;-1.23;100.00;101958.44;5554901;32;34641;-70
2023/01/25 03:31:42;;;;;;;;;;;;;;;-1.13;100.00;101962.41;5568189;32;33943;-71
2023/01/25 03:34:48;;;;;;;;;;;;;;;-0.82;100.00;101958.72;5568136;32;34627;-70
2023/01/25 03:38:03;;;;;;;;;;;;;;;-0.74;100.00;101970.53;5555523;32;34873;-70
2023/01/25 03:41:12;;;;;;;;;;;;;;;-0.71;100.00;101969.56;5568045;32;34500;-71
2023/01/25 03:44:23;;;;;;;;;;;;;;;-0.62;100.00;101974.41;5555021;32;35652;-70
2023/01/25 03:47:35;;;;;;;;;;;;;;;-0.56;100.00;101969.00;5554354;32;34824;-71
2023/01/25 03:50:53;;;;;;;;;;;;;;;-0.60;100.00;101970.88;5567669;32;35192;-71
2023/01/25 03:53:58;;;;;;;;;;;;;;;-0.66;100.00;101957.22;5554570;32;34547;-71
2023/01/25 03:57:12;;;;;;;;;;;;;;;-0.74;100.00;101964.47;5567950;32;34659;-70
2023/01/25 04:00:21;;;;;;;;;;;;;;;-0.80;100.00;101962.09;5541246;32;34931;-70
2023/01/25 04:03:32;;;;;;;;;;;;;;;-0.94;100.00;101966.06;5554838;32;35224;-71
2023/01/25 04:09:08;;;;;;;;;;;;;;;-1.18;100.00;101961.72;5551384;31;1780438;-71
2023/01/25 04:12:17;;;;;;;;;;;;;;;-1.34;100.00;101956.22;5608759;31;33711;-70
2023/01/25 04:15:23;;;;;;;;;;;;;;;-1.33;100.00;101959.66;5622183;31;33797;-70
2023/01/25 04:18:39;;;;;;;;;;;;;;;-1.48;100.00;101966.25;5609390;31;34553;-70
2023/01/25 04:21:50;;;;;;;;;;;;;;;-1.52;100.00;101975.06;5608625;31;34708;-71
2023/01/25 04:25:04;;;;;;;;;;;;;;;-1.62;100.00;101967.62;5608938;31;34332;-70
2023/01/25 04:28:10;;;;;;;;;;;;;;;-1.64;100.00;101972.84;5608630;31;34905;-71
2023/01/25 04:31:21;;;;;;;;;;;;;;;-1.62;100.00;101967.62;5607553;31;35007;-70
2023/01/25 04:34:28;;;;;;;;;;;;;;;-1.68;100.00;101968.66;5608350;31;33919;-70
2023/01/25 04:37:37;;;;;;;;;;;;;;;-1.80;100.00;101976.88;5595136;31;33180;-71
2023/01/25 04:40:48;;;;;;;;;;;;;;;-1.77;100.00;101979.37;5608549;31;34831;-70
2023/01/25 04:44:01;;;;;;;;;;;;;;;-1.66;100.00;101985.09;5621791;31;34143;-71
2023/01/25 04:47:12;;;;;;;;;;;;;;;-1.64;100.00;101980.66;5607282;31;33168;-71
2023/01/25 04:50:19;;;;;;;;;;;;;;;-1.51;100.00;101979.37;5594525;31;34030;-71
2023/01/25 04:53:27;;;;;;;;;;;;;;;-1.36;100.00;101973.66;5621649;31;34521;-71
2023/01/25 04:56:40;;;;;;;;;;;;;;;-1.21;100.00;101968.81;5583165;31;34204;-71
2023/01/25 04:59:47;;;;;;;;;;;;;;;-1.11;100.00;101968.41;5621638;31;34238;-72
2023/01/25 05:02:57;;;;;;;;;;;;;;;-1.00;100.00;101968.03;5621464;31;35508;-71
2023/01/25 05:06:03;;;;;;;;;;;;;;;-0.85;100.00;101962.25;5607825;31;34694;-71
2023/01/25 05:09:11;;;;;;;;;;;;;;;-0.84;100.00;101974.38;5607962;31;34114;-71
2023/01/25 05:12:18;;;;;;;;;;;;;;;-0.86;100.00;101970.97;5594596;31;34076;-72
2023/01/25 05:15:27;;;;;;;;;;;;;;;-0.85;100.00;101971.81;5607942;31;34497;-72
2023/01/25 05:18:37;;;;;;;;;;;;;;;-0.85;100.00;101979.63;5616257;31;34827;-72
2023/01/25 05:21:57;;;;;;;;;;;;;;;-0.80;100.00;101972.50;5595391;31;34569;-72
2023/01/25 05:26:59;;;;;;;;;;;;;;;-0.71;100.00;101972.16;5601950;31;34184;-71
2023/01/25 05:28:37;;;;;;;;;;;;;;;-0.63;100.00;101978.78;5608048;31;34198;-72
2023/01/25 05:31:46;;;;;;;;;;;;;;;-0.71;100.00;101980.84;5593803;31;32648;-71
2023/01/25 05:34:57;;;;;;;;;;;;;;;-0.76;100.00;101980.16;5589338;31;33631;-71
2023/01/25 05:38:04;;;;;;;;;;;;;;;-0.59;100.00;101993.44;5580882;31;35413;-72
2023/01/25 05:41:16;;;;;;;;;;;;;;;-0.67;100.00;101995.44;5594913;31;34536;-72
2023/01/25 05:44:22;;;;;;;;;;;;;;;-0.67;100.00;101982.41;5607960;31;34054;-71
2023/01/25 05:47:31;;;;;;;;;;;;;;;-0.49;100.00;101979.13;5594440;31;34211;-71
2023/01/25 05:50:42;;;;;;;;;;;;;;;-0.49;100.00;101980.91;5595108;31;34003;-71
2023/01/25 05:53:50;;;;;;;;;;;;;;;-0.51;100.00;101982.69;5591924;31;34277;-71
2023/01/25 05:56:55;;;;;;;;;;;;;;;-0.50;100.00;101974.81;5587971;31;34792;-71
2023/01/25 06:00:00;;;;;;;;;;;;;;;-0.48;100.00;101982.56;5574598;31;34187;-71
2023/01/25 06:03:15;;;;;;;;;;;;;;;-0.56;100.00;101982.00;5581040;31;34604;-71
2023/01/25 06:06:21;;;;;;;;;;;;;;;-0.52;100.00;101976.63;5593727;31;34186;-72
2023/01/25 06:09:28;;;;;;;;;;;;;;;-0.49;100.00;101983.50;5602498;31;34413;-71
2023/01/25 06:12:35;;;;;;;;;;;;;;;-0.51;100.00;101988.75;5600698;31;34584;-71
2023/01/25 06:15:39;;;;;;;;;;;;;;;-0.62;100.00;101985.69;5607812;31;34280;-71
2023/01/25 06:18:47;;;;;;;;;;;;;;;-0.62;100.00;101984.84;5583159;31;34546;-70
2023/01/25 06:21:53;;;;;;;;;;;;;;;-0.58;100.00;101996.88;5574160;31;34760;-71
2023/01/25 06:25:01;;;;;;;;;;;;;;;-0.83;100.00;101998.69;5587634;31;34824;-71
2023/01/25 06:28:06;;;;;;;;;;;;;;;-0.83;100.00;102001.28;5587400;31;34223;-71
2023/01/25 06:31:14;;;;;;;;;;;;;;;-0.88;100.00;102009.28;5586037;31;34789;-71
2023/01/25 06:34:18;;;;;;;;;;;;;;;-0.98;100.00;102003.53;5588834;31;33747;-71
2023/01/25 06:37:24;;;;;;;;;;;;;;;-1.07;100.00;102003.88;5590735;31;34475;-71
2023/01/25 06:40:29;;;;;;;;;;;;;;;-1.08;100.00;102009.13;5590444;31;34327;-72
2023/01/25 06:43:34;;;;;;;;;;;;;;;-0.99;100.00;102017.47;5603092;31;34515;-72
2023/01/25 06:46:38;;;;;;;;;;;;;;;-0.85;100.00;102013.50;5575591;31;34187;-71
2023/01/25 06:49:43;;;;;;;;;;;;;;;-0.82;100.00;102010.81;5576916;31;34140;-71
2023/01/25 06:52:52;;;;;;;;;;;;;;;-0.95;100.00;102007.78;5586046;31;34501;-71
2023/01/25 06:56:02;;;;;;;;;;;;;;;-0.92;100.00;102003.31;5579633;31;34072;-70
2023/01/25 06:59:05;;;;;;;;;;;;;;;-0.93;100.00;102006.84;5588380;31;34747;-70
2023/01/25 07:02:14;;;;;;;;;;;;;;;-0.98;100.00;102002.69;5594096;31;34544;-71
2023/01/25 07:05:18;;;;;;;;;;;;;;;-1.05;100.00;102003.78;5580162;31;34149;-70
2023/01/25 07:08:23;;;;;;;;;;;;;;;-1.05;100.00;102009.00;5579519;31;33612;-71
2023/01/25 07:11:26;;;;;;;;;;;;;;;-0.60;100.00;102016.94;5596347;31;34753;-72
2023/01/25 07:14:31;;;;;;;;;;;;;;;-0.52;100.00;102015.72;5581684;31;34873;-70
2023/01/25 07:17:34;;;;;;;;;;;;;;;-0.61;100.00;102015.22;5573490;31;34655;-71
2023/01/25 07:20:39;;;;;;;;;;;;;;;-0.56;100.00;102006.34;5588946;31;33989;-71
2023/01/25 07:23:43;;;;;;;;;;;;;;;-0.39;100.00;102002.25;5573681;31;33877;-71
2023/01/25 07:26:48;;;;;;;;;;;;;;;-0.31;100.00;102001.03;5574642;31;34131;-71
2023/01/25 07:29:52;;;;;;;;;;;;;;;-0.38;100.00;102001.31;5586736;31;34330;-71
2023/01/25 07:32:58;;;;;;;;;;;;;;;-0.30;100.00;102007.09;5599025;31;33961;-70
2023/01/25 07:36:03;;;;;;;;;;;;;;;-0.37;100.00;102006.47;5585753;31;33946;-71
2023/01/25 07:39:10;;;;;;;;;;;;;;;-0.40;100.00;102001.41;5603637;31;33121;-71
2023/01/25 07:42:14;;;;;;;;;;;;;;;-0.28;100.00;102013.94;5589845;31;34770;-71
2023/01/25 07:45:30;;;;;;;;;;;;;;;-0.32;100.00;102007.16;5592741;31;33990;-70
2023/01/25 07:48:36;;;;;;;;;;;;;;;-0.23;100.00;102001.59;5580282;31;34157;-70
2023/01/25 07:51:43;;;;;;;;;;;;;;;-0.05;100.00;102006.06;5559090;31;32759;-70
2023/01/25 07:54:48;;;;;;;;;;;;;;;-0.11;100.00;102008.94;5585926;31;34644;-70
2023/01/25 07:57:55;;;;;;;;;;;;;;;0.08;100.00;102008.22;5598373;31;34024;-71
2023/01/25 08:01:21;;;;;;;;;;;;;;;0.16;100.00;102003.53;5574121;31;33854;-71
2023/01/25 08:04:27;;;;;;;;;;;;;;;0.38;100.00;102002.59;5572910;31;34475;-71
2023/01/25 08:07:32;;;;;;;;;;;;;;;0.66;100.00;102001.44;5580587;31;33130;-71
2023/01/25 08:10:38;;;;;;;;;;;;;;;0.83;100.00;102004.16;5586842;31;34423;-71
2023/01/25 08:13:50;;;;;;;;;;;;;;;0.94;100.00;102001.09;5603668;31;34806;-72
2023/01/25 08:16:54;;;;;;;;;;;;;;;1.10;100.00;102007.38;5584759;31;34035;-71
2023/01/25 08:20:00;;;;;;;;;;;;;;;1.28;100.00;101989.09;5584958;31;34238;-71
2023/01/25 08:23:05;;;;;;;;;;;;;;;1.19;100.00;102001.72;5600462;31;34772;-72
2023/01/25 08:26:10;;;;;;;;;;;;;;;1.39;100.00;101998.22;5606034;31;34128;-72
2023/01/25 08:29:15;;;;;;;;;;;;;;;1.76;100.00;101990.34;5584894;31;34088;-70
2023/01/25 08:32:20;;;;;;;;;;;;;;;1.51;100.00;101985.41;5585811;31;35235;-70
2023/01/25 08:35:23;;;;;;;;;;;;;;;1.65;100.00;101987.38;5572766;31;34471;-71
2023/01/25 08:38:26;;;;;;;;;;;;;;;1.91;100.00;101989.63;5587256;31;34158;-70
2023/01/25 08:41:32;;;;;;;;;;;;;;;2.45;100.00;101983.47;5585766;31;34550;-71
2023/01/25 08:44:35;;;;;;;;;;;;;;;2.74;100.00;101987.25;5574133;31;33707;-71
2023/01/25 08:47:39;;;;;;;;;;;;;;;2.90;100.00;101985.53;5585783;31;34009;-71
2023/01/25 08:50:46;;;;;;;;;;;;;;;2.65;100.00;101982.47;5585973;31;34148;-71
2023/01/25 08:53:49;;;;;;;;;;;;;;;3.04;100.00;101990.06;5587592;31;34262;-72
2023/01/25 08:56:53;;;;;;;;;;;;;;;2.85;100.00;101981.47;5588585;31;34649;-71
2023/01/25 08:59:57;;;;;;;;;;;;;;;2.66;100.00;101980.72;5593487;31;34491;-71
2023/01/25 09:02:59;;;;;;;;;;;;;;;2.59;100.00;101978.38;5574750;31;34713;-72
2023/01/25 09:06:03;;;;;;;;;;;;;;;2.62;100.00;101990.47;5575304;31;34663;-72
2023/01/25 09:09:07;;;;;;;;;;;;;;;2.48;100.00;101985.09;5593757;31;32826;-72
2023/01/25 09:12:12;;;;;;;;;;;;;;;2.57;100.00;101984.62;5606428;31;32665;-72
2023/01/25 09:15:17;;;;;;;;;;;;;;;2.54;100.00;101980.41;5608057;31;33987;-71
2023/01/25 09:18:21;;;;;;;;;;;;;;;2.45;100.00;101980.00;5608320;31;34047;-71
2023/01/25 09:21:26;;;;;;;;;;;;;;;2.53;100.00;101977.84;5603677;31;34260;-71
2023/01/25 09:24:34;;;;;;;;;;;;;;;2.49;100.00;101978.94;5590935;31;34614;-72
2023/01/25 09:27:39;;;;;;;;;;;;;;;2.54;100.00;101979.53;5594061;31;34741;-72
2023/01/25 09:30:45;;;;;;;;;;;;;;;2.25;100.00;101972.28;5607573;31;34172;-70
2023/01/25 09:34:03;;;;;;;;;;;;;;;2.21;100.00;101976.84;5581835;31;34035;-71
2023/01/25 09:37:08;;;;;;;;;;;;;;;2.16;100.00;101963.97;5607767;31;33972;-72
2023/01/25 09:40:18;;;;;;;;;;;;;;;2.27;100.00;101973.94;5607556;31;34625;-71
2023/01/25 09:43:41;;;;;;;;;;;;;;;2.35;100.00;101973.53;5593426;31;34535;-71
2023/01/25 09:46:48;;;;;;;;;;;;;;;2.31;100.00;101974.62;5588118;31;34578;-71
2023/01/25 09:50:19;;;;;;;;;;;;;;;2.34;100.00;101967.44;5574299;31;35282;-71
2023/01/25 09:53:33;;;;;;;;;;;;;;;2.39;100.00;101959.34;5587931;31;34255;-71
2023/01/25 09:56:39;;;;;;;;;;;;;;;2.22;100.00;101948.87;5574520;31;33963;-71
2023/01/25 09:59:46;;;;;;;;;;;;;;;2.57;100.00;101943.56;5573756;31;34670;-71
2023/01/25 10:03:14;;;;;;;;;;;;;;;2.64;100.00;101941.47;5560804;31;34564;-71
2023/01/25 10:06:22;;;;;;;;;;;;;;;2.70;100.00;101938.53;5573473;31;33096;-70
2023/01/25 10:09:33;;;;;;;;;;;;;;;2.55;100.00;101929.69;5573819;31;33908;-70
2023/01/25 10:12:39;;;;;;;;;;;;;;;2.79;100.00;101931.97;5574215;31;35101;-70
2023/01/25 10:15:47;;;;;;;;;;;;;;;2.89;100.00;101920.09;5587164;31;34030;-71
2023/01/25 10:18:58;;;;;;;;;;;;;;;2.84;100.00;101922.09;5587876;31;34092;-71
2023/01/25 10:22:07;;;;;;;;;;;;;;;2.95;100.00;101906.66;5587661;31;34807;-71
2023/01/25 10:25:26;;;;;;;;;;;;;;;3.02;100.00;101906.22;5573858;31;34313;-73
2023/01/25 10:28:38;;;;;;;;;;;;;;;2.90;100.00;101903.44;5574076;31;34697;-71
2023/01/25 10:31:49;;;;;;;;;;;;;;;2.91;100.00;101907.72;5587560;31;34331;-71
2023/01/25 10:34:57;;;;;;;;;;;;;;;3.04;100.00;101896.53;5588083;31;35057;-70
2023/01/25 10:38:06;;;;;;;;;;;;;;;3.31;100.00;101893.31;5580576;31;34234;-70
2023/01/25 10:41:14;;;;;;;;;;;;;;;3.39;100.00;101885.84;5593895;31;34724;-71
2023/01/25 10:44:23;;;;;;;;;;;;;;;3.64;100.00;101886.19;5600988;31;34121;-70
2023/01/25 10:47:32;;;;;;;;;;;;;;;3.54;100.00;101889.41;5599545;31;34137;-71
2023/01/25 10:50:39;;;;;;;;;;;;;;;3.63;100.00;101881.84;5592716;31;33781;-71
2023/01/25 10:53:58;;;;;;;;;;;;;;;3.69;100.00;101883.28;5606842;31;34856;-70
2023/01/25 10:57:06;;;;;;;;;;;;;;;3.57;100.00;101870.87;5606712;31;34290;-72
2023/01/25 11:00:21;;;;;;;;;;;;;;;3.42;100.00;101869.97;5607300;31;34978;-71
2023/01/25 11:03:34;;;;;;;;;;;;;;;3.57;100.00;101866.47;5606924;31;33699;-71
2023/01/25 11:06:46;;;;;;;;;;;;;;;3.19;100.00;101862.53;5592869;31;34921;-72
2023/01/25 11:09:49;;;;;;;;;;;;;;;3.14;100.00;101859.31;5606128;31;34243;-72
2023/01/25 11:13:16;;;;;;;;;;;;;;;3.18;100.00;101856.44;5606891;31;33954;-71
2023/01/25 11:16:26;;;;;;;;;;;;;;;3.13;100.00;101847.13;5605636;31;35162;-72
2023/01/25 11:19:32;;;;;;;;;;;;;;;3.42;100.00;101843.72;5607013;31;34320;-72
2023/01/25 11:22:47;;;;;;;;;;;;;;;3.29;100.00;101842.75;5606880;31;34229;-71
2023/01/25 11:25:52;;;;;;;;;;;;;;;3.57;100.00;101835.00;5604334;31;34691;-71
2023/01/25 11:29:11;;;;;;;;;;;;;;;3.16;100.00;101833.84;5606308;31;35196;-71
2023/01/25 11:32:21;;;;;;;;;;;;;;;3.28;100.00;101827.94;5606667;31;34174;-70
2023/01/25 11:35:30;;;;;;;;;;;;;;;3.47;100.00;101823.34;5606728;31;35557;-71
2023/01/25 11:38:38;;;;;;;;;;;;;;;3.44;100.00;101807.75;5579331;31;32828;-70
2023/01/25 11:41:46;;;;;;;;;;;;;;;3.79;100.00;101801.31;5606487;31;34195;-70
2023/01/25 11:45:09;;;;;;;;;;;;;;;3.87;100.00;101793.00;5602737;31;34587;-70
2023/01/25 11:48:30;;;;;;;;;;;;;;;3.93;100.00;101779.50;5560176;31;32891;-70
2023/01/25 11:51:47;;;;;;;;;;;;;;;3.84;100.00;101780.03;5597146;31;33772;-70
2023/01/25 11:54:56;;;;;;;;;;;;;;;3.83;100.00;101766.06;5606731;31;34155;-70
2023/01/25 11:58:02;;;;;;;;;;;;;;;3.61;100.00;101760.41;5606488;31;34847;-70
2023/01/25 12:01:16;;;;;;;;;;;;;;;3.48;100.00;101752.41;5592499;31;34779;-70
2023/01/25 12:04:39;;;;;;;;;;;;;;;3.68;100.00;101745.97;5592512;31;34175;-71
2023/01/25 12:08:12;;;;;;;;;;;;;;;3.87;100.00;101746.56;5592003;31;33991;-69
2023/01/25 12:11:34;;;;;;;;;;;;;;;3.77;100.00;101749.88;5593631;31;34548;-70
2023/01/25 12:14:43;;;;;;;;;;;;;;;3.90;100.00;101737.69;5592150;31;34164;-70
2023/01/25 12:17:47;;;;;;;;;;;;;;;3.69;100.00;101728.47;5606156;31;33940;-70
2023/01/25 12:20:57;;;;;;;;;;;;;;;3.67;100.00;101731.19;5592816;31;33979;-70
2023/01/25 12:24:01;;;;;;;;;;;;;;;3.49;100.00;101722.59;5605963;31;33825;-71
2023/01/25 12:27:19;;;;;;;;;;;;;;;3.58;100.00;101723.88;5606029;31;33865;-70
2023/01/25 12:30:34;;;;;;;;;;;;;;;3.55;100.00;101721.41;5579838;31;34917;-71
2023/01/25 12:33:41;;;;;;;;;;;;;;;3.39;100.00;101717.97;5595581;31;34196;-71
2023/01/25 12:36:47;;;;;;;;;;;;;;;2.99;100.00;101715.03;5597384;31;34418;-71
2023/01/25 12:39:59;;;;;;;;;;;;;;;2.97;100.00;101716.03;5588443;31;34529;-71
2023/01/25 12:43:04;;;;;;;;;;;;;;;3.04;100.00;101720.88;5574950;31;33854;-71
2023/01/25 12:46:16;;;;;;;;;;;;;;;3.02;100.00;101717.47;5574772;31;34342;-71
2023/01/25 12:49:24;;;;;;;;;;;;;;;3.45;100.00;101709.75;5587470;31;33350;-70
2023/01/25 12:52:36;;;;;;;;;;;;;;;3.50;100.00;101707.72;5588298;31;34272;-70
2023/01/25 12:55:39;;;;;;;;;;;;;;;3.46;100.00;101698.34;5589873;31;34804;-70
2023/01/25 12:58:54;;;;;;;;;;;;;;;3.53;100.00;101694.44;5588467;31;33573;-70
2023/01/25 13:02:06;;;;;;;;;;;;;;;3.56;100.00;101682.91;5574682;31;34787;-71
2023/01/25 13:05:12;;;;;;;;;;;;;;;3.59;100.00;101687.94;5574023;31;32934;-71
2023/01/25 13:08:30;;;;;;;;;;;;;;;3.65;100.00;101683.19;5576213;31;34181;-71
2023/01/25 13:11:35;;;;;;;;;;;;;;;3.67;100.00;101677.84;5568450;31;34151;-70
2023/01/25 13:14:40;;;;;;;;;;;;;;;3.64;100.00;101672.78;5578788;31;35184;-72
2023/01/25 13:17:45;;;;;;;;;;;;;;;3.77;100.00;101681.63;5580717;31;34627;-71
2023/01/25 13:20:51;;;;;;;;;;;;;;;3.77;100.00;101677.22;5570616;31;34137;-70
2023/01/25 13:24:09;;;;;;;;;;;;;;;3.58;100.00;101671.38;5567779;32;33879;-70
2023/01/25 13:27:28;;;;;;;;;;;;;;;3.11;100.00;101668.91;5567375;31;34001;-71
2023/01/25 13:30:32;;;;;;;;;;;;;;;3.52;100.00;101663.87;5570606;31;34471;-70
2023/01/25 13:33:37;;;;;;;;;;;;;;;3.53;100.00;101662.94;5568802;31;34691;-70
2023/01/25 13:36:41;;;;;;;;;;;;;;;3.67;100.00;101655.09;5568166;31;34104;-70
2023/01/25 13:39:56;;;;;;;;;;;;;;;4.07;100.00;101663.97;5554101;32;33676;-71
2023/01/25 13:43:10;;;;;;;;;;;;;;;4.01;100.00;101663.53;5568210;31;34476;-71
2023/01/25 13:46:16;;;;;;;;;;;;;;;3.61;100.00;101657.22;5568279;31;34581;-71
2023/01/25 13:49:23;;;;;;;;;;;;;;;3.34;100.00;101657.09;5569754;31;34530;-71
2023/01/25 13:52:30;;;;;;;;;;;;;;;3.34;100.00;101655.28;5587190;31;34046;-70
2023/01/25 13:55:38;;;;;;;;;;;;;;;3.67;100.00;101656.87;5587121;31;34142;-71
2023/01/25 13:58:49;;;;;;;;;;;;;;;3.69;100.00;101649.72;5587997;31;34253;-70
2023/01/25 14:01:54;;;;;;;;;;;;;;;3.67;100.00;101646.38;5572347;31;34087;-70
2023/01/25 14:04:58;;;;;;;;;;;;;;;3.81;100.00;101651.63;5576800;31;34492;-72
2023/01/25 14:08:02;;;;;;;;;;;;;;;3.98;100.00;101653.19;5592398;31;35192;-71
2023/01/25 14:11:06;;;;;;;;;;;;;;;3.94;100.00;101647.31;5596658;31;34138;-71
2023/01/25 14:14:28;;;;;;;;;;;;;;;3.84;100.00;101633.91;5582483;31;34080;-71
2023/01/25 14:17:33;;;;;;;;;;;;;;;3.54;100.00;101629.66;5581453;31;33338;-71
2023/01/25 14:20:43;;;;;;;;;;;;;;;3.50;100.00;101634.25;5581726;31;33804;-70
2023/01/25 14:23:48;;;;;;;;;;;;;;;3.06;100.00;101642.12;5596299;31;34246;-70
2023/01/25 14:26:53;;;;;;;;;;;;;;;3.06;100.00;101636.87;5591058;31;34123;-71
2023/01/25 14:30:02;;;;;;;;;;;;;;;3.02;100.00;101633.59;5592991;31;33835;-70
2023/01/25 14:33:18;;;;;;;;;;;;;;;3.36;100.00;101636.84;5579325;31;34130;-70
2023/01/25 14:36:28;;;;;;;;;;;;;;;3.11;100.00;101639.22;5590797;31;34661;-70
2023/01/25 14:39:32;;;;;;;;;;;;;;;3.08;100.00;101637.63;5581526;31;35560;-71
2023/01/25 14:42:37;;;;;;;;;;;;;;;2.96;100.00;101633.94;5585606;31;34578;-71
2023/01/25 14:45:41;;;;;;;;;;;;;;;3.18;100.00;101627.47;5586294;31;34247;-71
2023/01/25 14:48:47;;;;;;;;;;;;;;;3.38;100.00;101635.00;5576273;31;33752;-70
2023/01/25 14:52:04;;;;;;;;;;;;;;;3.44;100.00;101627.59;5595751;31;34187;-70
2023/01/25 14:55:08;;;;;;;;;;;;;;;3.22;100.00;101626.34;5575894;31;34498;-70
2023/01/25 14:58:15;;;;;;;;;;;;;;;3.04;100.00;101625.66;5587622;31;34217;-70
2023/01/25 15:01:25;;;;;;;;;;;;;;;3.15;100.00;101619.78;5578885;31;34085;-70
2023/01/25 15:04:30;;;;;;;;;;;;;;;3.11;100.00;101616.47;5581280;31;33997;-69
2023/01/25 15:07:57;;;;;;;;;;;;;;;3.08;100.00;101615.81;5591988;31;34200;-70
2023/01/25 15:14:47;;;;;;;;;;;;;;;2.95;100.00;101613.88;5573069;31;34199;-71
2023/01/25 15:17:52;;;;;;;;;;;;;;;2.95;100.00;101611.28;5601356;31;34133;-70
2023/01/25 15:20:58;;;;;;;;;;;;;;;2.93;100.00;101614.94;5561041;31;32819;-70
2023/01/25 15:24:09;;;;;;;;;;;;;;;2.88;100.00;101615.19;5587022;31;34707;-70
2023/01/25 15:27:15;;;;;;;;;;;;;;;2.84;100.00;101613.69;5586527;31;33848;-70
2023/01/25 15:30:20;;;;;;;;;;;;;;;2.80;100.00;101614.81;5593973;31;34022;-70
2023/01/25 15:33:27;;;;;;;;;;;;;;;2.80;100.00;101608.72;5592533;31;34230;-70
2023/01/25 15:36:33;;;;;;;;;;;;;;;2.77;100.00;101609.72;5593078;31;34221;-70
2023/01/25 15:39:40;;;;;;;;;;;;;;;2.75;100.00;101606.37;5581686;31;34463;-71
2023/01/25 15:42:45;;;;;;;;;;;;;;;2.92;100.00;101606.22;5601936;31;34826;-70
2023/01/25 15:45:50;;;;;;;;;;;;;;;2.85;100.00;101604.06;5592835;31;34431;-70
2023/01/25 15:48:56;;;;;;;;;;;;;;;2.95;100.00;101602.59;5592903;31;34478;-70
2023/01/25 15:52:02;;;;;;;;;;;;;;;2.85;100.00;101604.06;5572536;31;34566;-70
2023/01/25 15:55:11;;;;;;;;;;;;;;;2.77;100.00;101608.88;5586654;31;34279;-71
2023/01/25 15:58:22;;;;;;;;;;;;;;;2.78;100.00;101610.56;5573091;31;34956;-72
2023/01/25 16:01:28;;;;;;;;;;;;;;;2.97;100.00;101609.41;5573553;31;34189;-70
2023/01/25 16:04:36;;;;;;;;;;;;;;;2.87;100.00;101605.63;5587676;31;35001;-70
2023/01/25 16:07:43;;;;;;;;;;;;;;;2.94;100.00;101595.66;5585495;31;34274;-70
2023/01/25 16:10:53;;;;;;;;;;;;;;;2.87;100.00;101600.41;5559286;31;32860;-70